9W213 VABB-VOBL
Flight info
| Callsign | 9W213 |
|---|---|
| Flight time | N/A |
| Altitude | 39000 |
| Route | VEVAK2A EPKOS DCT KP DCT BBM DCT IDSIB DCT GUNIM GUNIM7E |
| Aircraft | B777/H-V/N |
Departure
| Time | N/A |
|---|---|
| Airport | Chhatrapati Shivaji Maharaj International Airport (VABB) |
Arrival
| Time | 2026-04-30 19:36 |
|---|---|
| Airport | Kempegowda International Airport Bengaluru (VOBL) |
| Time | Latitude | Longitude | Altitude | Speed | Heading |
|---|---|---|---|---|---|
| 2026-04-30 19:36 | 13.20777 | 77.71263 | 2983 ft | 34 kts | 123° |
| 2026-04-30 19:36 | 13.20695 | 77.71459 | 2983 ft | 28 kts | 94° |
| 2026-04-30 19:36 | 13.20691 | 77.71823 | 2983 ft | 23 kts | 91° |
| 2026-04-30 19:37 | 13.20687 | 77.71978 | 2983 ft | 21 kts | 91° |
| 2026-04-30 19:37 | 13.20683 | 77.72119 | 2983 ft | 19 kts | 92° |
| 2026-04-30 19:37 | 13.20663 | 77.72252 | 2983 ft | 19 kts | 123° |
| 2026-04-30 19:37 | 13.20545 | 77.72276 | 2983 ft | 18 kts | 200° |
| 2026-04-30 19:38 | 13.20506 | 77.72166 | 2983 ft | 18 kts | 277° |
| 2026-04-30 19:38 | 13.20514 | 77.72040 | 2983 ft | 17 kts | 274° |
| 2026-04-30 19:38 | 13.20520 | 77.71922 | 2983 ft | 17 kts | 272° |
| 2026-04-30 19:38 | 13.20520 | 77.71731 | 2983 ft | 36 kts | 269° |
| 2026-04-30 19:39 | 13.20511 | 77.71425 | 2983 ft | 39 kts | 270° |
| 2026-04-30 19:39 | 13.20509 | 77.71224 | 2983 ft | 14 kts | 248° |
| 2026-04-30 19:39 | 13.20437 | 77.71185 | 2983 ft | 12 kts | 184° |
| 2026-04-30 19:39 | 13.20356 | 77.71179 | 2983 ft | 11 kts | 183° |
| 2026-04-30 19:40 | 13.20283 | 77.71165 | 2983 ft | 11 kts | 219° |
| 2026-04-30 19:40 | 13.20256 | 77.71096 | 2983 ft | 10 kts | 264° |
| 2026-04-30 19:40 | 13.20253 | 77.71024 | 2983 ft | 10 kts | 272° |
| 2026-04-30 19:40 | 13.20294 | 77.70974 | 2983 ft | 9 kts | 337° |
| 2026-04-30 19:41 | 13.20325 | 77.70968 | 2983 ft | 2 kts | 355° |
| 2026-04-30 19:41 | 13.20332 | 77.70968 | 2983 ft | 0 kts | 360° |
| 2026-04-30 19:44 | 13.20163 | 77.70285 | 2983 ft | 0 kts | 180° |